Time;durP1;ratioP1;P1;durP2;ratioP2;P2;SDS_P1;SDS_P2;PMS_P1;PMS_P2;Temp;Humidity;BMP_temperature;BMP_pressure;BME280_temperature;BME280_humidity;BME280_pressure;Samples;Min_cycle;Max_cycle;Signal;HPM_P1;HPM_P2
2023/12/14 00:00:25;;;;;;;;;4.00;4.00;;;;;15.50;100.00;100421.69;2088463;28;45302;-59
2023/12/14 00:01:25;;;;;;;;;4.00;4.00;;;;;15.75;100.00;100424.13;2088914;28;44951;-58
2023/12/14 00:02:25;;;;;;;;;3.00;3.00;;;;;15.84;100.00;100419.19;2088086;28;44955;-55
2023/12/14 00:03:26;;;;;;;;;4.00;4.00;;;;;15.68;100.00;100425.38;2088600;28;45096;-55
2023/12/14 00:04:26;;;;;;;;;3.67;3.67;;;;;15.78;100.00;100424.00;2088894;28;44947;-55
2023/12/14 00:05:26;;;;;;;;;4.00;4.00;;;;;15.80;100.00;100427.47;2088523;28;44978;-54
2023/12/14 00:06:27;;;;;;;;;3.00;3.00;;;;;15.19;100.00;100432.94;2088265;28;45213;-56
2023/12/14 00:07:27;;;;;;;;;2.67;2.67;;;;;15.80;100.00;100425.66;2086768;28;44949;-59
2023/12/14 00:08:27;;;;;;;;;3.00;2.00;;;;;15.81;100.00;100432.72;2083606;28;44984;-55
2023/12/14 00:09:28;;;;;;;;;4.00;2.33;;;;;15.68;100.00;100438.75;2086919;28;44818;-55
2023/12/14 00:10:28;;;;;;;;;3.00;3.00;;;;;15.68;100.00;100446.75;2088328;28;44963;-59
2023/12/14 00:11:28;;;;;;;;;3.00;3.00;;;;;15.42;100.00;100439.91;2081508;28;44838;-57
2023/12/14 00:12:29;;;;;;;;;3.00;3.00;;;;;15.23;100.00;100443.41;2083294;28;44945;-55
2023/12/14 00:13:29;;;;;;;;;2.67;2.67;;;;;15.69;100.00;100438.66;2087790;28;45012;-55
2023/12/14 00:14:29;;;;;;;;;2.33;2.33;;;;;15.57;100.00;100439.19;2088048;28;44826;-57
2023/12/14 00:15:30;;;;;;;;;3.00;2.33;;;;;15.11;100.00;100449.31;2088059;28;44885;-55
2023/12/14 00:16:30;;;;;;;;;2.00;2.00;;;;;15.80;100.00;100448.88;2087864;28;44967;-56
2023/12/14 00:17:31;;;;;;;;;2.33;2.00;;;;;15.82;100.00;100446.97;2087584;28;45449;-56
2023/12/14 00:18:31;;;;;;;;;3.00;2.00;;;;;15.79;100.00;100453.34;2088432;28;44790;-56
2023/12/14 00:19:31;;;;;;;;;2.00;2.00;;;;;15.79;100.00;100450.66;2088172;28;44756;-57
2023/12/14 00:20:32;;;;;;;;;2.00;2.00;;;;;15.79;100.00;100456.03;2088524;28;44768;-58
2023/12/14 00:21:32;;;;;;;;;3.00;3.00;;;;;14.90;100.00;100459.16;2088156;28;45075;-55
2023/12/14 00:22:32;;;;;;;;;3.00;2.00;;;;;14.74;100.00;100460.78;2085200;28;44989;-54
2023/12/14 00:23:33;;;;;;;;;2.67;2.00;;;;;14.67;100.00;100460.16;2087874;28;44860;-55
2023/12/14 00:24:34;;;;;;;;;2.00;2.00;;;;;14.63;100.00;100469.22;2088512;28;44893;-56
2023/12/14 00:25:34;;;;;;;;;2.00;2.00;;;;;14.62;100.00;100477.31;2087345;28;45168;-56
2023/12/14 00:26:34;;;;;;;;;1.00;1.00;;;;;14.59;100.00;100472.06;2082515;28;44944;-55
2023/12/14 00:27:35;;;;;;;;;3.00;1.00;;;;;14.57;100.00;100476.63;2087901;28;45650;-57
2023/12/14 00:28:35;;;;;;;;;2.00;1.00;;;;;14.56;100.00;100483.75;2088595;28;44929;-55
2023/12/14 00:29:35;;;;;;;;;2.00;1.00;;;;;14.58;100.00;100478.34;2088344;28;44834;-56
2023/12/14 00:30:36;;;;;;;;;1.00;1.00;;;;;14.57;100.00;100485.50;2088341;28;44870;-59
2023/12/14 00:31:36;;;;;;;;;1.67;1.67;;;;;14.56;100.00;100483.75;2088295;28;44956;-56
2023/12/14 00:32:36;;;;;;;;;3.00;2.00;;;;;14.56;100.00;100483.75;2088052;28;44913;-56
2023/12/14 00:33:37;;;;;;;;;2.33;2.33;;;;;15.23;100.00;100482.66;2084274;28;44916;-56
2023/12/14 00:34:37;;;;;;;;;1.33;1.00;;;;;15.44;100.00;100479.00;2085724;28;44910;-54
2023/12/14 00:35:37;;;;;;;;;1.00;1.00;;;;;15.72;100.00;100484.00;2082744;28;45083;-55
2023/12/14 00:36:38;;;;;;;;;1.67;1.67;;;;;15.81;100.00;100480.91;2087803;28;44965;-56
2023/12/14 00:37:38;;;;;;;;;0.00;0.00;;;;;15.82;100.00;100487.13;2088150;28;45471;-56
2023/12/14 00:38:39;;;;;;;;;2.67;1.00;;;;;15.02;100.00;100488.03;2088699;28;45265;-54
2023/12/14 00:39:40;;;;;;;;;1.00;1.00;;;;;14.78;100.00;100489.06;2085990;28;44949;-57
2023/12/14 00:40:40;;;;;;;;;0.00;0.00;;;;;14.71;100.00;100498.28;2084685;28;44937;-53
2023/12/14 00:41:40;;;;;;;;;4.00;2.00;;;;;14.66;100.00;100497.59;2079929;28;45136;-57
2023/12/14 00:42:41;;;;;;;;;2.00;1.67;;;;;14.63;100.00;100501.28;2085294;28;44846;-55
2023/12/14 00:43:41;;;;;;;;;1.00;1.00;;;;;14.60;100.00;100508.53;2087933;28;44973;-55
2023/12/14 00:44:41;;;;;;;;;1.00;1.00;;;;;14.58;100.00;100510.41;2088157;28;44841;-55
2023/12/14 00:45:42;;;;;;;;;1.00;1.00;;;;;14.55;100.00;100507.84;2088867;28;44988;-54
2023/12/14 00:46:42;;;;;;;;;2.00;1.00;;;;;14.55;100.00;100513.19;2086869;28;44890;-54
2023/12/14 00:47:43;;;;;;;;;1.67;1.67;;;;;14.59;100.00;100520.16;2087332;28;44959;-56
2023/12/14 00:48:43;;;;;;;;;1.00;1.00;;;;;14.53;100.00;100515.06;2087939;28;45278;-53
2023/12/14 00:49:43;;;;;;;;;1.00;1.00;;;;;14.51;100.00;100528.50;2088242;28;44960;-56
2023/12/14 00:50:43;;;;;;;;;3.00;1.00;;;;;14.51;100.00;100522.28;2087397;28;44936;-55
2023/12/14 00:51:44;;;;;;;;;0.00;0.00;;;;;14.51;100.00;100525.81;2087554;28;44879;-56
2023/12/14 00:52:44;;;;;;;;;1.00;1.00;;;;;14.50;100.00;100524.09;2088257;28;45149;-55
2023/12/14 00:53:45;;;;;;;;;2.00;2.00;;;;;14.50;100.00;100525.88;2081956;28;45005;-57
2023/12/14 00:54:45;;;;;;;;;3.25;2.00;;;;;14.52;100.00;100529.34;2087503;28;44978;-57
2023/12/14 00:55:46;;;;;;;;;2.00;2.00;;;;;14.52;100.00;100532.03;2087156;28;44997;-59
2023/12/14 00:56:46;;;;;;;;;1.00;1.00;;;;;14.50;100.00;100533.91;2088361;28;44827;-57
2023/12/14 00:57:46;;;;;;;;;2.00;2.00;;;;;14.49;100.00;100542.84;2086822;28;44818;-57
2023/12/14 00:58:47;;;;;;;;;2.67;2.00;;;;;14.62;100.00;100536.94;2088109;28;44908;-54
2023/12/14 00:59:47;;;;;;;;;1.00;1.00;;;;;14.52;100.00;100545.38;2088100;28;44823;-54
2023/12/14 01:00:47;;;;;;;;;3.00;2.00;;;;;14.50;100.00;100541.91;2086431;28;45093;-54
2023/12/14 01:01:48;;;;;;;;;3.33;2.00;;;;;14.50;100.00;100545.44;2087681;28;45494;-56
2023/12/14 01:02:48;;;;;;;;;1.00;1.00;;;;;14.48;100.00;100541.06;2088687;28;44902;-56
2023/12/14 01:03:48;;;;;;;;;1.00;1.00;;;;;14.45;100.00;100538.53;2085586;28;44928;-56
2023/12/14 01:04:49;;;;;;;;;1.00;1.00;;;;;14.44;100.00;100553.69;2087444;28;44928;-58
2023/12/14 01:05:49;;;;;;;;;2.00;1.00;;;;;14.43;100.00;100554.59;2088230;28;44837;-56
2023/12/14 01:06:49;;;;;;;;;1.00;1.00;;;;;15.19;100.00;100551.44;2087894;28;44875;-52
2023/12/14 01:07:50;;;;;;;;;1.00;1.00;;;;;15.36;100.00;100547.13;2079887;28;44937;-55
2023/12/14 01:08:50;;;;;;;;;1.00;0.00;;;;;15.46;100.00;100543.13;2087165;28;44925;-56
2023/12/14 01:09:50;;;;;;;;;1.33;1.00;;;;;14.98;100.00;100552.34;2085673;28;44839;-56
2023/12/14 01:10:50;;;;;;;;;2.67;1.00;;;;;15.40;100.00;100543.41;2087992;28;44976;-58
2023/12/14 01:11:51;;;;;;;;;1.00;1.00;;;;;15.28;100.00;100545.69;2088351;28;44791;-58
2023/12/14 01:12:51;;;;;;;;;1.00;1.00;;;;;15.40;100.00;100554.09;2095417;28;44946;-55
2023/12/14 01:13:51;;;;;;;;;1.33;1.00;;;;;15.47;100.00;100548.41;2090301;28;44855;-57
2023/12/14 01:14:52;;;;;;;;;1.00;1.00;;;;;15.42;100.00;100553.09;2083967;28;44831;-55
2023/12/14 01:15:52;;;;;;;;;1.00;1.00;;;;;14.97;100.00;100555.94;2086604;28;44915;-55
2023/12/14 01:16:52;;;;;;;;;0.67;0.67;;;;;15.29;100.00;100551.91;2087686;28;44818;-57
2023/12/14 01:17:53;;;;;;;;;1.00;1.00;;;;;15.11;100.00;100566.03;2087834;28;44845;-55
2023/12/14 01:18:53;;;;;;;;;1.00;0.33;;;;;15.04;100.00;100561.91;2088034;28;45276;-54
2023/12/14 01:19:53;;;;;;;;;0.67;0.67;;;;;14.67;100.00;100563.44;2086980;28;45135;-58
2023/12/14 01:20:54;;;;;;;;;0.33;0.33;;;;;15.48;100.00;100570.66;2080382;28;44905;-57
2023/12/14 01:21:55;;;;;;;;;0.00;0.00;;;;;15.41;100.00;100571.88;2088187;28;45095;-56
2023/12/14 01:22:55;;;;;;;;;2.00;1.00;;;;;15.48;100.00;100568.00;2087875;28;44987;-58
2023/12/14 01:23:55;;;;;;;;;0.00;0.00;;;;;15.46;100.00;100577.88;2088359;28;45055;-56
2023/12/14 01:24:56;;;;;;;;;1.00;1.00;;;;;15.45;100.00;100573.47;2087743;28;44857;-53
2023/12/14 01:25:56;;;;;;;;;2.00;1.00;;;;;15.41;100.00;100569.22;2088242;28;44905;-57
2023/12/14 01:26:56;;;;;;;;;1.00;1.00;;;;;15.40;100.00;100579.03;2087928;28;44912;-57
2023/12/14 01:27:57;;;;;;;;;1.00;1.00;;;;;15.42;100.00;100577.16;2087986;28;44993;-55
2023/12/14 01:28:58;;;;;;;;;0.00;0.00;;;;;15.37;100.00;100579.16;2087482;28;44957;-56
2023/12/14 01:29:59;;;;;;;;;0.25;0.25;;;;;15.35;100.00;100591.72;2088039;28;44924;-58
2023/12/14 01:30:59;;;;;;;;;0.00;0.00;;;;;15.35;100.00;100580.16;2086848;28;44929;-55
2023/12/14 01:31:59;;;;;;;;;0.33;0.33;;;;;15.25;100.00;100588.59;2088017;28;44857;-56
2023/12/14 01:33:00;;;;;;;;;1.00;1.00;;;;;15.06;100.00;100590.31;2086923;28;44836;-58
2023/12/14 01:34:00;;;;;;;;;1.33;0.67;;;;;14.99;100.00;100589.72;2087925;28;44943;-58
2023/12/14 01:35:00;;;;;;;;;1.33;1.00;;;;;15.16;100.00;100590.78;2087695;28;44937;-57
2023/12/14 01:36:01;;;;;;;;;1.00;0.00;;;;;15.21;100.00;100594.13;2088256;28;44968;-53
2023/12/14 01:37:01;;;;;;;;;0.00;0.00;;;;;15.40;100.00;100599.56;2087794;28;44842;-58
2023/12/14 01:38:01;;;;;;;;;1.00;1.00;;;;;15.32;100.00;100590.06;2087825;28;44840;-56
2023/12/14 01:39:02;;;;;;;;;0.33;0.00;;;;;15.30;100.00;100594.59;2087723;28;44818;-54
2023/12/14 01:40:02;;;;;;;;;1.00;1.00;;;;;15.32;100.00;100600.75;2087770;28;44949;-58
2023/12/14 01:41:03;;;;;;;;;2.00;1.00;;;;;15.30;100.00;100599.97;2082281;28;45067;-57
2023/12/14 01:42:04;;;;;;;;;1.00;1.00;;;;;15.30;100.00;100609.78;2081016;28;44972;-57
2023/12/14 01:43:10;;;;;;;;;0.67;0.67;;;;;15.31;100.00;100615.06;2087780;28;44965;-56
2023/12/14 01:44:11;;;;;;;;;1.75;1.75;;;;;15.29;100.00;100600.03;2087603;28;44813;-57
2023/12/14 01:45:13;;;;;;;;;1.00;1.00;;;;;15.27;100.00;100615.28;2087631;28;44925;-55
2023/12/14 01:46:15;;;;;;;;;1.00;1.00;;;;;15.24;100.00;100612.69;2080682;28;45006;-57
2023/12/14 01:47:15;;;;;;;;;1.00;1.00;;;;;15.19;100.00;100612.91;2085164;28;44858;-57
2023/12/14 01:48:15;;;;;;;;;0.00;0.00;;;;;15.21;100.00;100613.72;2089898;28;44847;-55
2023/12/14 01:49:16;;;;;;;;;1.33;1.00;;;;;15.25;100.00;100619.81;2087311;28;45089;-57
2023/12/14 01:50:16;;;;;;;;;0.00;0.00;;;;;15.29;100.00;100626.75;2089046;28;45137;-56
2023/12/14 01:51:16;;;;;;;;;1.00;1.00;;;;;15.27;100.00;100624.16;2089150;28;44778;-56
2023/12/14 01:52:17;;;;;;;;;0.00;0.00;;;;;15.19;100.00;100626.28;2088872;28;45005;-56
2023/12/14 01:53:17;;;;;;;;;1.00;1.00;;;;;15.25;100.00;100622.50;2089014;28;44953;-58
2023/12/14 01:54:18;;;;;;;;;0.00;0.00;;;;;15.24;100.00;100628.75;2089147;28;45151;-58
2023/12/14 01:55:18;;;;;;;;;0.00;0.00;;;;;15.23;100.00;100632.34;2089081;28;44913;-55
2023/12/14 01:56:18;;;;;;;;;0.00;0.00;;;;;15.22;100.00;100628.81;2089340;28;44874;-55
2023/12/14 01:57:19;;;;;;;;;1.00;1.00;;;;;15.28;100.00;100631.25;2096709;28;44989;-54
2023/12/14 01:58:20;;;;;;;;;1.00;1.00;;;;;15.25;100.00;100646.56;2096828;28;45255;-51
2023/12/14 01:59:20;;;;;;;;;0.00;0.00;;;;;15.28;100.00;100641.94;2089380;28;44897;-57
2023/12/14 02:00:26;;;;;;;;;0.00;0.00;;;;;15.29;100.00;100642.81;2089030;28;45042;-56
2023/12/14 02:01:45;;;;;;;;;0.00;0.00;;;;;15.28;100.00;100649.97;2089707;28;44897;-55
2023/12/14 02:02:45;;;;;;;;;0.50;0.50;;;;;15.26;100.00;100653.63;2089302;28;44935;-58
2023/12/14 02:03:47;;;;;;;;;0.00;0.00;;;;;15.02;100.00;100653.72;2088801;28;44806;-57
2023/12/14 02:04:48;;;;;;;;;0.00;0.00;;;;;15.24;100.00;100655.47;2088991;28;44883;-55
2023/12/14 02:05:48;;;;;;;;;0.00;0.00;;;;;15.23;100.00;100659.94;2088958;28;44720;-55
2023/12/14 02:06:48;;;;;;;;;0.00;0.00;;;;;15.23;100.00;100659.94;2087723;28;44906;-57
2023/12/14 02:07:49;;;;;;;;;0.00;0.00;;;;;15.22;100.00;100660.03;2088978;28;44845;-56
2023/12/14 02:08:50;;;;;;;;;1.75;0.00;;;;;14.48;100.00;100677.25;2087208;28;44882;-56
2023/12/14 02:09:50;;;;;;;;;0.00;0.00;;;;;14.34;100.00;100667.94;2087649;28;45005;-58
2023/12/14 02:10:51;;;;;;;;;0.33;0.33;;;;;14.32;100.00;100677.81;2089166;28;44870;-54
2023/12/14 02:11:51;;;;;;;;;0.00;0.00;;;;;14.45;100.00;100677.38;2087833;28;44862;-54
2023/12/14 02:12:51;;;;;;;;;1.67;1.00;;;;;14.33;100.00;100687.56;2088911;28;44892;-55
2023/12/14 02:13:52;;;;;;;;;2.00;2.00;;;;;14.91;100.00;100687.16;2088838;28;44837;-57
2023/12/14 02:14:52;;;;;;;;;0.00;0.00;;;;;14.91;100.00;100681.81;2087343;28;44932;-56
2023/12/14 02:15:53;;;;;;;;;0.00;0.00;;;;;14.98;100.00;100688.63;2088828;28;44846;-57
2023/12/14 02:16:54;;;;;;;;;0.50;0.50;;;;;14.46;100.00;100692.47;2088939;28;44902;-54
2023/12/14 02:17:54;;;;;;;;;0.00;0.00;;;;;14.35;100.00;100688.34;2088697;28;44930;-56
2023/12/14 02:18:54;;;;;;;;;0.00;0.00;;;;;14.82;100.00;100688.38;2088103;28;44895;-54
2023/12/14 02:19:54;;;;;;;;;0.33;0.33;;;;;14.46;100.00;100692.47;2087640;28;44959;-56
2023/12/14 02:20:55;;;;;;;;;0.00;0.00;;;;;14.43;100.00;100691.63;2088675;28;44883;-58
2023/12/14 02:21:55;;;;;;;;;0.00;0.00;;;;;14.43;100.00;100690.75;2089610;28;44926;-57
2023/12/14 02:22:56;;;;;;;;;1.00;1.00;;;;;14.44;100.00;100689.84;2087026;28;45024;-54
2023/12/14 02:23:56;;;;;;;;;0.00;0.00;;;;;14.69;100.00;100687.13;2087709;28;46067;-55
2023/12/14 02:24:57;;;;;;;;;1.00;0.00;;;;;14.40;100.00;100686.41;2088745;28;44771;-55
2023/12/14 02:25:57;;;;;;;;;0.00;0.00;;;;;14.44;100.00;100700.53;2089046;28;44914;-54
2023/12/14 02:26:58;;;;;;;;;0.00;0.00;;;;;14.87;100.00;100693.56;2089396;28;45156;-56
2023/12/14 02:27:58;;;;;;;;;0.33;0.33;;;;;14.85;100.00;100698.06;2089593;28;44991;-54
2023/12/14 02:28:59;;;;;;;;;0.00;0.00;;;;;14.33;100.00;100703.56;2089157;28;44853;-57
2023/12/14 02:29:59;;;;;;;;;1.00;0.00;;;;;14.43;100.00;100709.44;2089208;28;45084;-58
2023/12/14 02:30:59;;;;;;;;;0.00;0.00;;;;;14.77;100.00;100705.53;2096713;28;45010;-56
2023/12/14 02:31:59;;;;;;;;;1.00;1.00;;;;;14.45;100.00;100709.41;2097064;28;44814;-58
2023/12/14 02:33:00;;;;;;;;;0.00;0.00;;;;;14.47;100.00;100707.56;2088728;28;44824;-58
2023/12/14 02:34:00;;;;;;;;;0.00;0.00;;;;;14.61;100.00;100710.56;2088616;28;45055;-55
2023/12/14 02:35:00;;;;;;;;;0.00;0.00;;;;;14.39;100.00;100710.50;2088731;28;44921;-56
2023/12/14 02:36:03;;;;;;;;;0.67;0.67;;;;;14.36;100.00;100707.94;2088672;28;45016;-56
2023/12/14 02:37:03;;;;;;;;;0.00;0.00;;;;;14.37;100.00;100709.69;2088883;28;44869;-56
2023/12/14 02:38:03;;;;;;;;;0.00;0.00;;;;;14.33;100.00;100716.06;2088614;28;44966;-58
2023/12/14 02:39:04;;;;;;;;;0.33;0.33;;;;;14.31;100.00;100709.91;2088447;28;44882;-56
2023/12/14 02:40:05;;;;;;;;;1.00;1.00;;;;;14.28;100.00;100716.22;2087707;28;45033;-55
2023/12/14 02:41:05;;;;;;;;;0.00;0.00;;;;;14.26;100.00;100715.41;2083737;28;44994;-53
2023/12/14 02:42:05;;;;;;;;;1.00;1.00;;;;;14.73;100.00;100718.97;2088657;28;45280;-55
2023/12/14 02:43:06;;;;;;;;;0.00;0.00;;;;;14.59;100.00;100723.13;2088866;28;45163;-57
2023/12/14 02:44:06;;;;;;;;;0.33;0.00;;;;;14.41;100.00;100719.31;2093186;28;44966;-55
2023/12/14 02:45:07;;;;;;;;;0.00;0.00;;;;;14.47;100.00;100729.78;2088213;28;44926;-54
2023/12/14 02:46:08;;;;;;;;;0.00;0.00;;;;;14.37;100.00;100733.72;2088153;28;44907;-55
2023/12/14 02:47:09;;;;;;;;;0.00;0.00;;;;;14.42;100.00;100729.94;2085939;28;44837;-58
2023/12/14 02:48:09;;;;;;;;;0.00;0.00;;;;;14.34;100.00;100737.34;2088969;28;44842;-56
2023/12/14 02:49:09;;;;;;;;;1.00;0.00;;;;;14.31;100.00;100736.59;2084649;28;44845;-56
2023/12/14 02:50:10;;;;;;;;;0.00;0.00;;;;;14.35;100.00;100732.88;2080824;28;44884;-58
2023/12/14 02:51:17;;;;;;;;;0.00;0.00;;;;;14.30;100.00;100737.53;2089414;28;45416;-54
2023/12/14 02:52:17;;;;;;;;;0.00;0.00;;;;;14.27;100.00;100732.31;2085037;28;45040;-55
2023/12/14 02:53:17;;;;;;;;;1.33;0.00;;;;;14.27;100.00;100734.97;2082108;28;44866;-56
2023/12/14 02:54:18;;;;;;;;;0.00;0.00;;;;;14.26;100.00;100734.09;2086418;28;44987;-52
2023/12/14 02:55:18;;;;;;;;;1.00;1.00;;;;;14.48;100.00;100738.66;2086481;28;44952;-54
2023/12/14 02:56:18;;;;;;;;;1.33;0.00;;;;;14.62;100.00;100734.56;2088171;28;44928;-54
2023/12/14 02:57:19;;;;;;;;;0.00;0.00;;;;;14.67;100.00;100745.06;2084915;28;44865;-55
2023/12/14 02:58:19;;;;;;;;;0.00;0.00;;;;;14.75;100.00;100745.66;2085326;28;44965;-55
2023/12/14 02:59:19;;;;;;;;;0.67;0.67;;;;;14.79;100.00;100733.91;2088998;28;45558;-56
2023/12/14 03:00:20;;;;;;;;;1.00;1.00;;;;;14.90;100.00;100741.53;2085511;28;44919;-57
2023/12/14 03:01:23;;;;;;;;;0.00;0.00;;;;;14.85;100.00;100747.03;2088824;28;44929;-56
2023/12/14 03:02:23;;;;;;;;;0.50;0.50;;;;;14.82;100.00;100747.16;2088405;28;44905;-58
2023/12/14 03:03:24;;;;;;;;;0.00;0.00;;;;;14.79;100.00;100741.06;2088448;28;44866;-57
2023/12/14 03:04:24;;;;;;;;;0.00;0.00;;;;;14.58;100.00;100742.75;2088795;28;44814;-55
2023/12/14 03:05:24;;;;;;;;;0.00;0.00;;;;;14.83;100.00;100743.53;2088604;28;44819;-54
2023/12/14 03:06:25;;;;;;;;;0.00;0.00;;;;;14.77;100.00;100745.59;2088238;28;45201;-55
2023/12/14 03:07:25;;;;;;;;;0.67;0.67;;;;;14.68;100.00;100744.13;2088986;28;44933;-57
2023/12/14 03:08:25;;;;;;;;;1.00;1.00;;;;;14.82;100.00;100743.59;2088271;28;44957;-55
2023/12/14 03:09:25;;;;;;;;;0.00;0.00;;;;;14.90;100.00;100752.22;2088628;28;44893;-57
2023/12/14 03:10:26;;;;;;;;;1.00;1.00;;;;;14.82;100.00;100748.94;2089398;28;44960;-56
2023/12/14 03:11:26;;;;;;;;;0.00;0.00;;;;;14.86;100.00;100754.09;2087276;28;45110;-54
2023/12/14 03:12:26;;;;;;;;;0.00;0.00;;;;;14.73;100.00;100752.84;2088645;28;44928;-54
2023/12/14 03:13:28;;;;;;;;;0.00;0.00;;;;;14.64;100.00;100756.75;2088380;28;44975;-56
2023/12/14 03:14:33;;;;;;;;;0.00;0.00;;;;;14.96;100.00;100755.50;2088318;28;44898;-55
2023/12/14 03:15:33;;;;;;;;;1.00;0.00;;;;;14.80;100.00;100761.50;2088697;28;44917;-58
2023/12/14 03:16:35;;;;;;;;;0.00;0.00;;;;;14.90;100.00;100763.75;2088237;28;44926;-56
2023/12/14 03:17:35;;;;;;;;;0.75;0.75;;;;;14.53;100.00;100766.09;2088734;28;44913;-56
2023/12/14 03:18:36;;;;;;;;;0.00;0.00;;;;;15.03;100.00;100764.16;2089005;28;44924;-56
2023/12/14 03:19:36;;;;;;;;;0.67;0.67;;;;;15.07;100.00;100765.75;2088764;28;44949;-54
2023/12/14 03:20:36;;;;;;;;;0.00;0.00;;;;;15.10;100.00;100764.78;2089054;28;44890;-56
2023/12/14 03:21:37;;;;;;;;;0.33;0.33;;;;;14.98;100.00;100769.66;2088925;28;44923;-55
2023/12/14 03:22:38;;;;;;;;;0.00;0.00;;;;;14.92;100.00;100775.25;2088518;28;45211;-54
2023/12/14 03:23:38;;;;;;;;;0.00;0.00;;;;;14.88;100.00;100776.31;2088750;28;44880;-57
2023/12/14 03:24:38;;;;;;;;;1.00;1.00;;;;;15.05;100.00;100778.31;2088580;28;45210;-58
2023/12/14 03:25:39;;;;;;;;;0.00;0.00;;;;;15.00;100.00;100781.19;2088726;28;44964;-57
2023/12/14 03:26:39;;;;;;;;;0.00;0.00;;;;;15.06;100.00;100780.06;2095630;28;44910;-55
2023/12/14 03:27:39;;;;;;;;;1.00;1.00;;;;;15.06;100.00;100785.41;2091802;28;44934;-57
2023/12/14 03:28:40;;;;;;;;;0.00;0.00;;;;;15.16;100.00;100783.25;2088719;28;44984;-53
2023/12/14 03:29:40;;;;;;;;;0.00;0.00;;;;;15.13;100.00;100778.91;2088533;28;45589;-55
2023/12/14 03:30:41;;;;;;;;;0.00;0.00;;;;;15.18;100.00;100784.06;2088506;28;44805;-55
2023/12/14 03:31:41;;;;;;;;;0.33;0.33;;;;;15.32;100.00;100777.22;2088523;28;45262;-55
2023/12/14 03:32:42;;;;;;;;;0.00;0.00;;;;;15.33;100.00;100791.47;2088243;28;45004;-54
2023/12/14 03:33:42;;;;;;;;;0.00;0.00;;;;;15.30;100.00;100787.13;2088648;28;44922;-55
2023/12/14 03:34:43;;;;;;;;;1.00;1.00;;;;;15.45;100.00;100790.97;2088534;28;45015;-52
2023/12/14 03:35:43;;;;;;;;;0.00;0.00;;;;;15.20;100.00;100790.22;2088048;28;45545;-55
2023/12/14 03:36:43;;;;;;;;;0.00;0.00;;;;;15.16;100.00;100796.63;2088523;28;45154;-55
2023/12/14 03:37:44;;;;;;;;;0.00;0.00;;;;;15.18;100.00;100798.28;2088448;28;45335;-57
2023/12/14 03:38:44;;;;;;;;;0.00;0.00;;;;;15.06;100.00;100803.25;2088930;28;45114;-57
2023/12/14 03:39:44;;;;;;;;;0.00;0.00;;;;;15.40;100.00;100797.44;2087333;28;45149;-56
2023/12/14 03:40:45;;;;;;;;;0.00;0.00;;;;;15.43;100.00;100803.53;2086823;28;45011;-57
2023/12/14 03:41:45;;;;;;;;;0.00;0.00;;;;;15.46;100.00;100802.53;2084906;28;44902;-57
2023/12/14 03:42:46;;;;;;;;;1.00;0.00;;;;;15.53;100.00;100807.59;2078146;28;44865;-57
2023/12/14 03:43:46;;;;;;;;;0.00;0.00;;;;;15.57;100.00;100801.16;2087949;28;45353;-57
2023/12/14 03:44:46;;;;;;;;;0.00;0.00;;;;;15.60;100.00;100802.88;2088658;28;44958;-55
2023/12/14 03:45:47;;;;;;;;;0.00;0.00;;;;;15.54;100.00;100803.09;2088303;28;45194;-55
2023/12/14 03:46:47;;;;;;;;;0.00;0.00;;;;;15.44;100.00;100805.28;2086875;28;44907;-54
2023/12/14 03:47:47;;;;;;;;;0.00;0.00;;;;;15.52;100.00;100810.34;2087574;28;44840;-58
2023/12/14 03:48:48;;;;;;;;;1.00;0.00;;;;;15.52;100.00;100813.88;2088108;28;44823;-56
2023/12/14 03:49:49;;;;;;;;;0.00;0.00;;;;;15.45;100.00;100816.84;2088495;28;45194;-54
2023/12/14 03:50:49;;;;;;;;;0.00;0.00;;;;;15.44;100.00;100818.66;2088474;28;44929;-54
2023/12/14 03:51:50;;;;;;;;;1.00;0.00;;;;;15.65;100.00;100819.63;2088744;28;44916;-52
2023/12/14 03:52:50;;;;;;;;;0.00;0.00;;;;;15.58;100.00;100820.75;2086204;28;45025;-54
2023/12/14 03:53:50;;;;;;;;;0.00;0.00;;;;;15.60;100.00;100821.59;2096087;28;44826;-53
2023/12/14 03:54:51;;;;;;;;;0.00;0.00;;;;;15.57;100.00;100822.56;2095795;28;45189;-50
2023/12/14 03:55:51;;;;;;;;;0.33;0.33;;;;;15.64;100.00;100825.91;2088208;28;45164;-52
2023/12/14 03:56:51;;;;;;;;;0.00;0.00;;;;;15.39;100.00;100827.81;2088545;28;45077;-53
2023/12/14 03:57:52;;;;;;;;;1.00;1.00;;;;;15.56;100.00;100830.66;2088436;28;44917;-53
2023/12/14 03:58:52;;;;;;;;;0.00;0.00;;;;;15.55;100.00;100831.59;2088343;28;44924;-54
2023/12/14 03:59:52;;;;;;;;;0.00;0.00;;;;;15.62;100.00;100840.25;2088283;28;44904;-55
2023/12/14 04:00:53;;;;;;;;;0.00;0.00;;;;;15.40;100.00;100838.44;2086572;28;45656;-55
2023/12/14 04:01:53;;;;;;;;;0.00;0.00;;;;;15.36;100.00;100844.81;2087449;28;45000;-52
2023/12/14 04:02:53;;;;;;;;;0.67;0.67;;;;;15.41;100.00;100847.31;2087725;28;44958;-58
2023/12/14 04:03:54;;;;;;;;;1.00;1.00;;;;;15.50;100.00;100852.28;2088208;28;44897;-56
2023/12/14 04:04:54;;;;;;;;;0.00;0.00;;;;;15.54;100.00;100852.13;2088045;28;45404;-55
2023/12/14 04:05:54;;;;;;;;;0.00;0.00;;;;;15.49;100.00;100859.44;2080870;28;44886;-56
2023/12/14 04:06:55;;;;;;;;;1.00;1.00;;;;;15.43;100.00;100859.69;2084845;28;45316;-52
2023/12/14 04:07:55;;;;;;;;;1.00;1.00;;;;;15.52;100.00;100855.81;2088409;28;45143;-58
2023/12/14 04:08:55;;;;;;;;;1.00;1.00;;;;;15.51;100.00;100857.59;2085815;28;44987;-52
2023/12/14 04:09:56;;;;;;;;;1.00;1.00;;;;;15.56;100.00;100854.72;2088037;28;45037;-54
2023/12/14 04:10:56;;;;;;;;;1.00;1.00;;;;;15.66;100.00;100856.16;2096490;28;44910;-55
2023/12/14 04:11:56;;;;;;;;;0.00;0.00;;;;;15.74;100.00;100854.00;2096056;28;45016;-56
2023/12/14 04:12:57;;;;;;;;;0.33;0.33;;;;;14.72;100.00;100857.94;2087972;28;44881;-53
2023/12/14 04:13:58;;;;;;;;;1.00;1.00;;;;;15.63;100.00;100858.09;2088517;28;44944;-51
2023/12/14 04:14:58;;;;;;;;;1.00;1.00;;;;;15.92;100.00;100859.56;2088389;28;44983;-53
2023/12/14 04:15:59;;;;;;;;;1.00;1.00;;;;;15.99;100.00;100861.03;2088404;28;44980;-55
2023/12/14 04:16:59;;;;;;;;;0.00;0.00;;;;;15.97;100.00;100861.09;2085591;28;44840;-54
2023/12/14 04:17:59;;;;;;;;;1.00;1.00;;;;;16.17;100.00;100863.81;2088104;28;44847;-52
2023/12/14 04:18:59;;;;;;;;;2.00;0.33;;;;;15.78;100.00;100862.81;2088272;28;44939;-53
2023/12/14 04:20:00;;;;;;;;;2.00;2.00;;;;;16.14;100.00;100866.63;2088109;28;44926;-53
2023/12/14 04:21:00;;;;;;;;;1.00;1.00;;;;;16.07;100.00;100872.31;2087874;28;44916;-54
2023/12/14 04:22:01;;;;;;;;;2.00;2.00;;;;;16.25;100.00;100873.31;2088249;28;44979;-52
2023/12/14 04:23:01;;;;;;;;;2.00;2.00;;;;;16.33;100.00;100881.91;2087827;28;44921;-56
2023/12/14 04:24:01;;;;;;;;;2.67;2.67;;;;;16.10;100.00;100875.72;2088638;28;44966;-53
2023/12/14 04:25:01;;;;;;;;;3.00;2.00;;;;;16.13;100.00;100878.28;2087625;28;44962;-54
2023/12/14 04:26:02;;;;;;;;;2.00;2.00;;;;;16.17;100.00;100879.88;2087540;28;45052;-53
2023/12/14 04:27:02;;;;;;;;;1.00;1.00;;;;;15.29;100.00;100880.75;2088250;28;44873;-54
2023/12/14 04:28:03;;;;;;;;;2.00;1.00;;;;;14.66;100.00;100884.91;2087976;28;44873;-52
2023/12/14 04:29:06;;;;;;;;;3.67;2.00;;;;;14.50;100.00;100891.72;2088401;28;44856;-53
2023/12/14 04:30:10;;;;;;;;;1.00;1.00;;;;;14.45;100.00;100907.00;2087810;28;44920;-56
2023/12/14 04:31:11;;;;;;;;;2.00;2.00;;;;;14.39;100.00;100903.59;2088288;28;44926;-52
2023/12/14 04:32:11;;;;;;;;;1.00;1.00;;;;;14.37;100.00;100907.25;2088043;28;45166;-52
2023/12/14 04:33:11;;;;;;;;;3.00;2.00;;;;;14.34;100.00;100910.88;2088178;28;44795;-53
2023/12/14 04:34:15;;;;;;;;;4.00;4.00;;;;;14.33;100.00;100917.13;2086486;28;45105;-53
2023/12/14 04:35:15;;;;;;;;;2.50;2.50;;;;;14.31;100.00;100926.13;2088567;28;44890;-53
2023/12/14 04:36:16;;;;;;;;;2.00;2.00;;;;;14.28;100.00;100911.09;2087992;28;44936;-53
2023/12/14 04:37:16;;;;;;;;;2.67;2.67;;;;;14.27;100.00;100922.72;2088087;28;44896;-56
2023/12/14 04:38:17;;;;;;;;;2.00;2.00;;;;;14.27;100.00;100924.50;2088079;28;45000;-56